Time;durP1;ratioP1;P1;durP2;ratioP2;P2;SDS_P1;SDS_P2;PMS_P1;PMS_P2;Temp;Humidity;BMP_temperature;BMP_pressure;BME280_temperature;BME280_humidity;BME280_pressure;Samples;Min_cycle;Max_cycle;Signal;HPM_P1;HPM_P2
2021/01/03 00:01:45;;;;;;;0.60;0.50;;;3.40;99.90;;;4.77;100.00;-8550.06;5025247;28;20729;-65
2021/01/03 00:04:12;;;;;;;0.60;0.60;;;3.40;99.90;;;4.73;100.00;-8649.38;5029657;28;20278;-65
2021/01/03 00:06:39;;;;;;;0.70;0.60;;;3.40;99.90;;;4.65;100.00;-8467.00;5021818;28;20190;-65
2021/01/03 00:09:08;;;;;;;1.00;0.97;;;3.30;99.90;;;4.59;100.00;-8376.91;5021119;28;20194;-65
2021/01/03 00:11:35;;;;;;;0.60;0.60;;;3.30;99.90;;;4.57;100.00;-7452.91;5029286;28;20452;-66
2021/01/03 00:14:04;;;;;;;0.60;0.60;;;3.30;99.90;;;4.69;100.00;-7045.06;5001700;28;20982;-64
2021/01/03 00:16:31;;;;;;;0.70;0.70;;;3.30;99.90;;;4.71;100.00;-6890.69;5025789;28;20815;-66
2021/01/03 00:18:59;;;;;;;0.60;0.50;;;3.30;99.90;;;4.63;100.00;-7239.03;5024132;28;20530;-65
2021/01/03 00:21:26;;;;;;;0.60;0.60;;;3.30;99.90;;;4.63;100.00;-6603.78;5017771;28;20576;-66
2021/01/03 00:23:53;;;;;;;0.70;0.60;;;3.30;99.90;;;4.64;100.00;-6511.63;5015368;28;20450;-65
2021/01/03 00:26:20;;;;;;;0.60;0.60;;;3.30;99.90;;;4.57;100.00;-6317.06;5019300;28;20440;-65
2021/01/03 00:28:47;;;;;;;0.60;0.50;;;3.30;99.90;;;4.59;100.00;-5838.72;5023542;28;20681;-65
2021/01/03 00:31:15;;;;;;;0.70;0.60;;;3.30;99.90;;;4.50;100.00;-5796.09;5026806;28;20447;-65
2021/01/03 00:33:42;;;;;;;0.60;0.50;;;3.30;99.90;;;4.47;100.00;-5509.47;5030269;28;20448;-65
2021/01/03 00:36:11;;;;;;;1.45;1.30;;;3.20;99.90;;;4.43;100.00;-4654.66;5016652;28;20441;-66
2021/01/03 00:38:38;;;;;;;0.60;0.57;;;3.20;99.90;;;4.44;100.00;-4572.44;5015926;28;20198;-65
2021/01/03 00:41:05;;;;;;;0.60;0.50;;;3.20;99.90;;;4.55;100.00;-4485.31;5025137;28;20210;-65
2021/01/03 00:43:32;;;;;;;0.60;0.60;;;3.30;99.90;;;4.65;100.00;-5041.34;5016930;28;20465;-65
2021/01/03 00:45:59;;;;;;;0.60;0.60;;;3.30;99.90;;;4.67;100.00;-5480.06;5027954;28;20767;-65
2021/01/03 00:48:26;;;;;;;0.60;0.60;;;3.30;99.90;;;4.63;100.00;-6023.22;5019549;28;20186;-65
2021/01/03 00:50:53;;;;;;;1.10;1.00;;;3.30;99.90;;;4.52;100.00;-6157.38;5022361;28;20186;-65
2021/01/03 00:53:21;;;;;;;0.90;0.80;;;3.30;99.90;;;4.57;100.00;-6018.06;5027187;28;20196;-65
2021/01/03 00:55:49;;;;;;;0.60;0.50;;;3.30;99.90;;;4.44;100.00;-6301.59;5016099;28;20906;-65
2021/01/03 00:58:16;;;;;;;0.60;0.60;;;3.30;99.90;;;4.47;100.00;-5863.25;5040233;28;20767;-66
2021/01/03 01:00:43;;;;;;;0.60;0.60;;;3.30;99.90;;;4.45;100.00;-5624.00;5010541;28;20473;-65
2021/01/03 01:03:10;;;;;;;0.85;0.85;;;3.30;99.90;;;4.40;100.00;-5539.19;5024400;28;20444;-66
2021/01/03 01:05:39;;;;;;;0.65;0.60;;;3.30;99.90;;;4.50;100.00;-5165.66;5015706;28;20632;-65
2021/01/03 01:08:06;;;;;;;0.70;0.60;;;3.30;99.90;;;4.49;100.00;-5272.78;5028976;28;20191;-64
2021/01/03 01:10:34;;;;;;;0.60;0.50;;;3.30;99.90;;;4.47;100.00;-4657.22;5019315;28;20190;-65
2021/01/03 01:13:01;;;;;;;0.70;0.67;;;3.30;99.90;;;4.45;100.00;-5180.50;5030175;28;20220;-65
2021/01/03 01:15:31;;;;;;;0.60;0.50;;;3.20;99.90;;;4.48;100.00;-4791.81;5012355;28;21003;-65
2021/01/03 01:18:05;;;;;;;0.60;0.50;;;3.30;99.90;;;4.51;100.00;-4831.72;5013308;28;20206;-65
2021/01/03 01:20:33;;;;;;;0.60;0.60;;;3.30;99.90;;;4.45;100.00;-4851.56;5021497;28;20445;-65
2021/01/03 01:23:01;;;;;;;0.60;0.60;;;3.20;99.90;;;4.47;100.00;-4722.00;5024798;28;20790;-65
2021/01/03 01:25:32;;;;;;;0.70;0.60;;;3.20;99.90;;;4.39;100.00;-5250.16;5031771;28;20471;-65
2021/01/03 01:28:01;;;;;;;0.60;0.60;;;3.20;99.90;;;4.36;100.00;-4956.09;5019669;28;20432;-64
2021/01/03 01:30:31;;;;;;;0.60;0.60;;;3.30;99.90;;;4.46;100.00;-5574.22;5029392;28;20465;-66
2021/01/03 01:33:00;;;;;;;0.70;0.60;;;3.40;99.90;;;4.50;100.00;-5302.72;5017695;28;20433;-66
2021/01/03 01:35:33;;;;;;;0.60;0.60;;;3.40;99.90;;;4.51;100.00;-5579.31;5031189;28;20453;-66
2021/01/03 01:38:00;;;;;;;0.60;0.60;;;3.40;99.90;;;4.58;100.00;-5599.47;5031534;28;20433;-66
2021/01/03 01:40:32;;;;;;;0.70;0.60;;;3.40;99.90;;;4.37;100.00;-6261.47;5016141;28;20612;-65
2021/01/03 01:43:00;;;;;;;0.60;0.50;;;3.50;99.90;;;4.55;100.00;-5454.84;5014794;28;20442;-66
2021/01/03 01:45:31;;;;;;;0.95;0.95;;;3.50;99.90;;;4.69;100.00;-6108.19;5017146;28;20873;-66
2021/01/03 01:48:04;;;;;;;0.60;0.50;;;3.60;99.90;;;4.68;100.00;-7219.38;5032085;28;20533;-64
2021/01/03 01:50:43;;;;;;;0.60;0.60;;;3.70;99.90;;;4.75;100.00;-7807.72;5022549;28;20660;-66
2021/01/03 01:53:21;;;;;;;0.60;0.60;;;3.70;99.90;;;4.57;100.00;-8809.97;5022854;28;20193;-65
2021/01/03 01:56:00;;;;;;;0.60;0.60;;;3.70;99.90;;;4.69;100.00;-8805.97;5032477;28;20202;-65
2021/01/03 01:58:40;;;;;;;0.68;0.60;;;3.70;99.90;;;4.87;100.00;-8356.50;5028702;28;20222;-64
2021/01/03 02:01:14;;;;;;;0.60;0.57;;;3.80;99.90;;;4.83;100.00;-8084.72;5027679;28;20551;-65
2021/01/03 02:03:50;;;;;;;0.70;0.60;;;3.70;99.90;;;4.87;100.00;-7733.72;5018303;28;20441;-65
2021/01/03 02:06:26;;;;;;;0.67;0.60;;;3.70;99.90;;;4.83;100.00;-9795.66;5015643;28;20456;-65
2021/01/03 02:09:01;;;;;;;0.70;0.60;;;3.70;99.90;;;4.84;100.00;-10216.56;5024226;28;20436;-67
2021/01/03 02:11:30;;;;;;;0.70;0.60;;;3.80;99.90;;;4.79;100.00;-9222.66;5029226;28;20445;-64
2021/01/03 02:14:03;;;;;;;0.70;0.60;;;3.70;99.90;;;4.90;100.00;-8463.84;5018607;28;20993;-65
2021/01/03 02:16:35;;;;;;;0.60;0.50;;;3.70;99.90;;;4.83;100.00;-7294.97;5028141;28;20183;-65
2021/01/03 02:19:05;;;;;;;0.67;0.60;;;3.70;99.90;;;4.71;100.00;-5410.38;5020988;28;20476;-64
2021/01/03 02:21:41;;;;;;;0.70;0.60;;;3.60;99.90;;;4.76;100.00;-4221.19;5031074;28;20528;-65
2021/01/03 02:24:18;;;;;;;0.60;0.50;;;3.60;99.90;;;4.81;100.00;-2931.56;5019609;28;20440;-65
2021/01/03 02:26:52;;;;;;;0.60;0.50;;;3.60;99.90;;;4.74;100.00;-2462.66;5025839;28;20647;-66
2021/01/03 02:29:22;;;;;;;0.60;0.60;;;3.70;99.90;;;4.70;100.00;-1307.41;5029290;28;20460;-66
2021/01/03 02:31:54;;;;;;;0.70;0.60;;;3.60;99.90;;;4.73;100.00;607.59;5017517;28;20496;-67
2021/01/03 02:34:32;;;;;;;0.70;0.60;;;3.60;99.90;;;4.72;100.00;2136.25;5020124;28;20208;-66
2021/01/03 02:37:04;;;;;;;0.70;0.60;;;3.60;99.90;;;4.69;100.00;2873.03;5023514;28;20437;-66
2021/01/03 02:39:44;;;;;;;0.68;0.60;;;3.60;99.90;;;4.61;100.00;5714.22;5030660;28;20924;-66
2021/01/03 02:42:17;;;;;;;0.60;0.57;;;3.60;99.90;;;4.72;100.00;8626.13;5020741;28;20203;-66
2021/01/03 02:44:44;;;;;;;0.60;0.60;;;3.70;99.90;;;4.71;100.00;10902.25;5024172;28;20511;-66
2021/01/03 02:47:13;;;;;;;0.70;0.60;;;3.60;99.90;;;4.54;100.00;11779.75;5021772;28;20482;-66
2021/01/03 02:49:39;;;;;;;0.70;0.63;;;3.60;99.90;;;4.58;100.00;10663.66;5021316;28;20485;-66
2021/01/03 02:52:21;;;;;;;9.95;1.40;;;3.60;99.90;;;4.53;100.00;-1340.59;5029200;28;20442;-65
2021/01/03 02:54:50;;;;;;;0.70;0.60;;;3.80;99.90;;;4.79;100.00;-4046.63;5024728;28;20191;-66
2021/01/03 02:57:17;;;;;;;0.67;0.57;;;3.80;99.90;;;4.78;100.00;-1309.56;5019272;28;20485;-65
2021/01/03 02:59:45;;;;;;;0.70;0.60;;;3.80;99.90;;;4.72;100.00;1057.03;5030663;28;20522;-66
2021/01/03 03:02:12;;;;;;;0.60;0.60;;;3.70;99.90;;;4.66;100.00;3077.59;5015932;28;20815;-66
2021/01/03 03:04:39;;;;;;;1.40;1.30;;;3.70;99.90;;;4.68;100.00;5770.28;5023089;28;20273;-66
2021/01/03 03:07:06;;;;;;;0.60;0.60;;;3.70;99.90;;;4.73;100.00;13589.38;5032596;28;20175;-66
2021/01/03 03:09:33;;;;;;;0.70;0.60;;;3.70;99.90;;;4.66;100.00;15794.16;5018485;28;20196;-66
2021/01/03 03:12:00;;;;;;;0.60;0.60;;;3.70;99.90;;;4.76;100.00;11795.50;5035905;28;20433;-65
2021/01/03 03:14:28;;;;;;;0.97;0.97;;;3.60;99.90;;;4.71;100.00;3118.16;5021203;28;20508;-66
2021/01/03 03:16:56;;;;;;;1.00;1.00;;;3.60;99.90;;;4.70;100.00;-705.88;5012066;28;20477;-64
2021/01/03 03:19:23;;;;;;;0.70;0.60;;;3.60;99.90;;;4.76;100.00;-3941.88;5015835;28;20500;-64
2021/01/03 03:21:50;;;;;;;0.60;0.60;;;3.60;99.90;;;4.65;100.00;-4517.81;5015540;28;20516;-66
2021/01/03 03:24:17;;;;;;;0.60;0.50;;;3.60;99.90;;;4.54;100.00;-3124.03;5018597;28;20453;-64
2021/01/03 03:26:51;;;;;;;0.60;0.60;;;3.50;99.90;;;4.57;100.00;-8864.75;5023449;28;20197;-65
2021/01/03 03:29:21;;;;;;;0.70;0.60;;;3.50;99.90;;;4.85;100.00;-12053.38;5019248;28;20301;-64
2021/01/03 03:31:51;;;;;;;0.65;0.50;;;3.60;99.90;;;4.61;100.00;-16779.91;5030775;28;20265;-64
2021/01/03 03:34:19;;;;;;;0.70;0.60;;;3.60;99.90;;;4.72;100.00;-16603.38;5028294;28;20521;-64
2021/01/03 03:36:50;;;;;;;0.70;0.60;;;3.60;99.90;;;4.65;100.00;-16395.75;5023023;28;20203;-65
2021/01/03 03:39:17;;;;;;;0.70;0.60;;;3.60;99.90;;;4.70;100.00;-15877.44;5020313;28;20200;-64
2021/01/03 03:41:43;;;;;;;0.70;0.70;;;3.50;99.90;;;4.58;100.00;-11699.13;5030147;28;20508;-66
2021/01/03 03:44:10;;;;;;;0.70;0.60;;;3.50;99.90;;;4.70;100.00;-8449.91;5018373;28;20245;-65
2021/01/03 03:46:37;;;;;;;0.70;0.70;;;3.50;99.90;;;4.66;100.00;-3390.75;5025338;28;20196;-65
2021/01/03 03:49:06;;;;;;;0.68;0.60;;;3.50;99.90;;;4.67;100.00;936.78;5026044;28;20837;-65
2021/01/03 03:51:32;;;;;;;0.70;0.60;;;3.50;99.90;;;4.61;100.00;7863.06;5013425;28;20257;-65
2021/01/03 03:53:59;;;;;;;0.70;0.60;;;3.50;99.90;;;4.83;100.00;9384.56;5008459;28;20475;-65
2021/01/03 03:56:27;;;;;;;0.70;0.60;;;3.50;99.90;;;4.73;100.00;11707.00;5025256;28;20208;-65
2021/01/03 03:58:53;;;;;;;0.70;0.60;;;3.50;99.90;;;4.78;100.00;18689.81;5015639;28;20281;-65
2021/01/03 04:01:20;;;;;;;0.70;0.60;;;3.50;99.90;;;4.72;100.00;29744.38;5013832;28;20238;-65
2021/01/03 04:03:47;;;;;;;0.70;0.60;;;3.40;99.90;;;4.63;100.00;41695.72;5028739;28;20468;-65
2021/01/03 04:06:15;;;;;;;0.70;0.60;;;3.40;99.90;;;4.61;100.00;50117.66;5014526;28;20236;-65
2021/01/03 04:08:42;;;;;;;0.70;0.60;;;3.40;99.90;;;4.55;100.00;57581.06;5022545;28;20552;-64
2021/01/03 04:11:09;;;;;;;0.70;0.60;;;3.30;99.90;;;4.52;100.00;64410.97;5020821;28;20338;-65
2021/01/03 04:13:36;;;;;;;0.67;0.60;;;3.30;99.90;;;4.48;100.00;70600.06;5028238;28;20582;-65
2021/01/03 04:16:07;;;;;;;0.65;0.60;;;3.20;99.90;;;4.52;100.00;75175.59;5001552;28;20524;-65
2021/01/03 04:18:34;;;;;;;0.60;0.60;;;3.20;99.90;;;4.60;100.00;77801.38;5025591;28;20179;-64
2021/01/03 04:21:01;;;;;;;0.60;0.50;;;3.30;99.90;;;4.60;100.00;79109.72;5024541;28;20189;-64
2021/01/03 04:23:28;;;;;;;0.60;0.50;;;3.30;99.90;;;4.75;100.00;81094.53;5017785;28;20553;-65
2021/01/03 04:25:59;;;;;;;0.70;0.60;;;3.30;99.90;;;4.64;100.00;81078.88;5016749;28;20277;-65
2021/01/03 04:28:27;;;;;;;0.60;0.60;;;3.40;99.90;;;4.70;100.00;80759.31;5026149;28;20299;-65
2021/01/03 04:30:53;;;;;;;0.60;0.60;;;3.40;99.90;;;4.61;100.00;82056.78;5023685;28;20248;-64
2021/01/03 04:33:20;;;;;;;0.70;0.70;;;3.40;99.90;;;4.56;100.00;82705.19;5031559;28;20499;-64
2021/01/03 04:35:49;;;;;;;2.00;0.90;;;3.40;99.90;;;4.57;100.00;81723.63;5015185;28;20202;-64
2021/01/03 04:38:16;;;;;;;0.70;0.60;;;3.30;99.90;;;4.50;100.00;80404.50;5027354;28;20195;-64
2021/01/03 04:40:46;;;;;;;0.70;0.60;;;3.30;99.90;;;4.58;100.00;80088.50;5021633;28;20248;-66
2021/01/03 04:43:19;;;;;;;0.60;0.60;;;3.30;99.90;;;4.42;100.00;78430.69;5019698;28;20647;-65
2021/01/03 04:45:57;;;;;;;0.70;0.60;;;3.20;99.90;;;4.54;100.00;76485.47;5028195;28;20276;-64
2021/01/03 04:48:27;;;;;;;0.70;0.60;;;3.30;99.90;;;4.53;100.00;73543.66;5019262;28;20236;-64
2021/01/03 04:51:20;;;;;;;0.70;0.60;;;3.30;99.90;;;4.59;100.00;70613.13;5021079;28;20261;-65
2021/01/03 04:53:58;;;;;;;0.70;0.60;;;3.30;99.90;;;4.60;100.00;67027.13;5029424;28;20222;-65
2021/01/03 04:56:37;;;;;;;0.70;0.60;;;3.30;99.90;;;4.80;100.00;64115.94;5017284;28;20198;-65
2021/01/03 04:59:15;;;;;;;0.70;0.60;;;3.40;99.90;;;4.60;100.00;55310.78;5016729;28;20219;-66
2021/01/03 05:02:25;;;;;;;0.90;0.90;;;3.50;99.90;;;4.64;100.00;52391.44;5017519;28;20281;-65
2021/01/03 05:05:12;;;;;;;0.70;0.60;;;3.50;99.90;;;4.71;100.00;52398.47;5024752;28;20567;-64
2021/01/03 05:07:46;;;;;;;0.70;0.60;;;3.40;99.90;;;4.66;100.00;51744.59;5032603;28;20194;-67
2021/01/03 05:10:20;;;;;;;0.65;0.60;;;3.40;99.90;;;4.67;100.00;52719.38;5020911;28;20526;-65
2021/01/03 05:13:04;;;;;;;0.70;0.60;;;3.40;99.90;;;4.71;100.00;54346.97;5027253;28;20264;-65
2021/01/03 05:15:33;;;;;;;0.60;0.60;;;3.40;99.90;;;4.56;100.00;56606.50;5017155;28;20268;-65
2021/01/03 05:18:01;;;;;;;0.70;0.60;;;3.40;99.90;;;4.50;100.00;60176.75;5015525;28;20282;-64
2021/01/03 05:20:28;;;;;;;0.63;0.60;;;3.40;99.90;;;4.63;100.00;61817.81;5023728;28;20436;-66
2021/01/03 05:23:13;;;;;;;0.70;0.60;;;3.30;99.90;;;4.63;100.00;60190.09;5025347;28;20610;-67
2021/01/03 05:25:43;;;;;;;0.70;0.60;;;3.30;99.90;;;4.56;100.00;61485.22;5032454;28;20498;-65
2021/01/03 05:28:20;;;;;;;0.65;0.50;;;3.30;99.90;;;4.55;100.00;62785.63;5020848;28;20182;-65
2021/01/03 05:30:47;;;;;;;0.70;0.60;;;3.30;99.90;;;4.55;100.00;63111.19;5026710;28;20191;-65
2021/01/03 05:33:23;;;;;;;0.65;0.60;;;3.30;99.90;;;4.60;100.00;64745.88;5017327;28;20596;-65
2021/01/03 05:35:50;;;;;;;0.70;0.60;;;3.30;99.90;;;4.55;100.00;63762.44;5032477;28;20538;-65
2021/01/03 05:38:37;;;;;;;0.70;0.70;;;3.30;99.90;;;4.61;100.00;64746.44;5018859;28;20453;-64
2021/01/03 05:41:18;;;;;;;0.60;0.50;;;3.30;99.90;;;4.47;100.00;66685.22;5028228;28;20240;-64
2021/01/03 05:43:53;;;;;;;0.70;0.60;;;3.20;99.90;;;4.54;100.00;68650.22;5019109;28;20473;-65
2021/01/03 05:46:31;;;;;;;0.70;0.68;;;3.20;99.90;;;4.51;100.00;68320.50;5008739;28;20470;-65
2021/01/03 05:49:02;;;;;;;0.70;0.60;;;3.20;99.90;;;4.55;100.00;69303.16;5024611;28;20183;-64
2021/01/03 05:51:38;;;;;;;0.70;0.60;;;3.20;99.90;;;4.59;100.00;70613.13;5031193;28;20469;-65
2021/01/03 05:54:12;;;;;;;0.70;0.60;;;3.20;99.90;;;4.53;100.00;68975.16;5004556;28;20174;-64
2021/01/03 05:56:43;;;;;;;0.68;0.60;;;3.20;99.90;;;4.36;100.00;69280.53;5027224;28;20177;-64
2021/01/03 05:59:16;;;;;;;0.70;0.50;;;3.30;99.90;;;4.45;100.00;73206.75;5018727;28;20212;-65
2021/01/03 06:01:42;;;;;;;0.70;0.60;;;3.20;99.90;;;4.52;100.00;73542.97;5017667;28;21018;-65
2021/01/03 06:04:12;;;;;;;0.70;0.60;;;3.20;99.90;;;4.45;100.00;73533.28;5020172;28;20654;-66
2021/01/03 06:07:25;;;;;;;0.70;0.60;;;3.20;99.90;;;4.49;100.00;73865.69;5025014;28;21015;-65
2021/01/03 06:09:52;;;;;;;0.60;0.60;;;3.20;99.90;;;4.44;100.00;73205.47;4954438;29;20193;-65
2021/01/03 06:12:21;;;;;;;0.70;0.70;;;3.20;99.90;;;4.41;100.00;73855.28;5013443;28;20476;-65
2021/01/03 06:14:53;;;;;;;0.70;0.50;;;3.20;99.90;;;4.46;100.00;73861.78;5033613;28;20556;-65
2021/01/03 06:17:34;;;;;;;0.70;0.60;;;3.20;99.90;;;4.52;100.00;73868.94;5021235;28;20507;-65
2021/01/03 06:20:13;;;;;;;0.70;0.70;;;3.20;99.90;;;4.41;100.00;73528.75;5031716;28;20179;-65
2021/01/03 06:22:47;;;;;;;0.65;0.52;;;3.20;99.90;;;4.44;100.00;74838.38;5018672;28;20203;-67
2021/01/03 06:25:42;;;;;;;0.70;0.60;;;3.20;99.90;;;4.36;100.00;73196.44;5028622;28;20191;-65
2021/01/03 06:28:37;;;;;;;0.60;0.50;;;3.10;99.90;;;4.53;100.00;71911.13;5019990;28;20628;-65
2021/01/03 06:32:08;;;;;;;0.70;0.60;;;3.20;99.90;;;4.40;100.00;66025.91;5023196;28;20469;-64
2021/01/03 06:34:41;;;;;;;0.70;0.60;;;3.20;99.90;;;4.46;100.00;67661.84;4943694;29;20224;-64
2021/01/03 06:37:25;;;;;;;0.70;0.50;;;3.20;99.90;;;4.42;100.00;67005.81;5016383;28;20666;-64
2021/01/03 06:40:04;;;;;;;0.60;0.50;;;3.20;99.90;;;4.46;100.00;64729.28;5031171;28;20442;-65
2021/01/03 06:43:36;;;;;;;0.70;0.60;;;3.20;99.90;;;4.56;100.00;64741.28;5004540;28;20227;-65
2021/01/03 06:46:52;;;;;;;0.80;0.73;;;3.20;99.90;;;4.48;100.00;62126.84;5008935;28;20214;-65
2021/01/03 06:49:43;;;;;;;0.68;0.60;;;3.30;99.90;;;4.49;100.00;60500.97;5025951;28;20210;-66
2021/01/03 06:52:58;;;;;;;0.70;0.57;;;3.20;99.90;;;4.56;100.00;60183.16;5027903;28;20273;-66
2021/01/03 06:55:56;;;;;;;0.68;0.50;;;3.30;99.90;;;4.47;100.00;59848.28;5029596;28;20285;-64
2021/01/03 06:59:02;;;;;;;0.80;0.80;;;3.30;99.90;;;4.46;100.00;59196.81;5023179;28;20190;-65
2021/01/03 07:01:34;;;;;;;0.70;0.60;;;3.30;99.90;;;4.57;100.00;59858.94;5019161;28;20457;-65
2021/01/03 07:04:10;;;;;;;0.60;0.50;;;3.30;99.90;;;4.05;100.00;58504.88;5030964;28;20188;-65
2021/01/03 07:06:38;;;;;;;0.60;0.50;;;3.30;99.90;;;4.07;100.00;61432.38;5023042;28;20597;-65
2021/01/03 07:09:09;;;;;;;0.70;0.60;;;3.30;99.90;;;4.05;100.00;61430.19;5022420;28;20442;-65
2021/01/03 07:11:56;;;;;;;0.65;0.60;;;3.30;99.90;;;4.04;100.00;60453.75;5015672;28;20207;-67
2021/01/03 07:14:55;;;;;;;0.65;0.60;;;3.40;99.90;;;3.98;100.00;61747.72;5007709;28;20595;-67
2021/01/03 07:18:02;;;;;;;0.70;0.50;;;3.30;99.90;;;4.11;100.00;62413.03;5019130;28;20237;-66
2021/01/03 07:20:35;;;;;;;0.70;0.70;;;3.40;99.90;;;4.05;100.00;64032.56;5002914;28;20651;-64
2021/01/03 07:23:14;;;;;;;0.60;0.50;;;3.40;99.90;;;4.01;100.00;62401.97;5014582;28;20714;-65
2021/01/03 07:25:54;;;;;;;0.67;0.50;;;3.40;99.90;;;4.21;100.00;58196.59;5019270;28;20192;-66
2021/01/03 07:28:27;;;;;;;0.60;0.60;;;3.50;99.90;;;4.10;100.00;52990.97;5020384;28;20932;-65
2021/01/03 07:31:02;;;;;;;0.70;0.60;;;3.60;99.90;;;4.27;100.00;52033.78;5023506;28;20266;-65
2021/01/03 07:33:49;;;;;;;0.70;0.60;;;3.60;99.90;;;4.26;100.00;49438.75;5029547;28;20771;-64
2021/01/03 07:36:24;;;;;;;0.70;0.60;;;3.60;99.90;;;4.17;100.00;50727.34;5005487;28;20608;-65
2021/01/03 07:39:17;;;;;;;0.60;0.60;;;3.60;99.90;;;4.24;100.00;53652.75;5023655;28;20519;-65
2021/01/03 07:41:46;;;;;;;0.70;0.57;;;3.60;99.90;;;4.22;100.00;54624.53;5016216;28;20329;-66
2021/01/03 07:44:31;;;;;;;0.60;0.60;;;3.60;99.90;;;4.31;100.00;55283.19;5028407;28;20219;-65
2021/01/03 07:47:00;;;;;;;0.70;0.60;;;3.50;99.90;;;4.16;100.00;54619.16;5017148;28;20197;-66
2021/01/03 07:49:46;;;;;;;0.70;0.60;;;3.50;99.90;;;4.36;100.00;54313.97;5028858;28;20503;-66
2021/01/03 07:52:39;;;;;;;0.70;0.53;;;3.50;99.90;;;4.26;100.00;57876.78;4998008;28;20496;-66
2021/01/03 07:55:27;;;;;;;0.70;0.60;;;3.50;99.90;;;4.29;100.00;55281.19;5025979;28;20486;-65
2021/01/03 07:57:58;;;;;;;0.70;0.60;;;3.60;99.90;;;4.30;100.00;55931.19;5016995;28;20230;-66
2021/01/03 08:00:27;;;;;;;0.70;0.60;;;3.60;99.90;;;4.47;100.00;56272.53;5026884;28;20826;-66
2021/01/03 08:03:00;;;;;;;0.70;0.60;;;3.60;99.90;;;4.40;100.00;55940.66;5015529;28;20211;-64
2021/01/03 08:05:30;;;;;;;0.70;0.60;;;3.50;99.90;;;4.28;100.00;57553.94;5008124;28;20233;-64
2021/01/03 08:08:06;;;;;;;0.70;0.60;;;3.50;99.90;;;4.30;100.00;58530.91;5010471;28;20190;-64
2021/01/03 08:10:33;;;;;;;0.60;0.60;;;3.50;99.90;;;4.32;100.00;59833.41;5029226;28;20248;-65
2021/01/03 08:13:11;;;;;;;0.70;0.50;;;3.50;99.90;;;4.34;100.00;57560.06;5013550;28;20876;-66
2021/01/03 08:15:38;;;;;;;0.77;0.67;;;3.60;99.90;;;4.28;100.00;59178.41;5013436;28;20436;-66
2021/01/03 08:18:13;;;;;;;0.70;0.70;;;3.60;99.90;;;4.41;100.00;61143.00;5013330;28;20447;-66
2021/01/03 08:20:40;;;;;;;0.70;0.60;;;3.60;99.90;;;4.40;100.00;61793.16;5024277;28;20464;-66
2021/01/03 08:23:18;;;;;;;0.70;0.60;;;3.60;99.90;;;4.60;100.00;57260.59;5011257;28;20474;-67
2021/01/03 08:25:46;;;;;;;0.70;0.60;;;3.70;99.90;;;4.52;100.00;55627.75;5028306;28;20186;-66
2021/01/03 08:28:20;;;;;;;0.60;0.50;;;3.70;99.90;;;4.57;100.00;56283.06;5017889;28;20468;-66
2021/01/03 08:30:50;;;;;;;0.70;0.60;;;3.70;99.90;;;4.60;100.00;52063.56;5023610;28;20480;-66
2021/01/03 08:33:23;;;;;;;0.70;0.60;;;3.80;99.90;;;4.59;100.00;55959.59;5026900;28;20535;-65
2021/01/03 08:35:50;;;;;;;0.70;0.60;;;3.80;99.90;;;4.58;100.00;54983.97;5015598;28;20837;-66
2021/01/03 08:38:26;;;;;;;0.70;0.60;;;3.80;99.90;;;4.52;100.00;52705.69;5016922;28;20449;-66
2021/01/03 08:41:01;;;;;;;0.60;0.60;;;3.80;99.90;;;4.55;100.00;54981.03;5021526;28;20183;-66
2021/01/03 08:43:31;;;;;;;0.70;0.50;;;3.80;99.90;;;4.59;100.00;57584.66;5028205;28;20476;-66
2021/01/03 08:46:02;;;;;;;0.70;0.50;;;3.80;99.90;;;4.88;100.00;53712.69;5016450;28;21146;-65
2021/01/03 08:48:30;;;;;;;0.60;0.50;;;3.90;99.90;;;4.81;100.00;50135.19;5025913;28;20441;-66
2021/01/03 08:51:13;;;;;;;0.60;0.60;;;3.90;99.90;;;4.63;100.00;51417.28;5013687;28;20442;-65
2021/01/03 08:53:40;;;;;;;0.70;0.60;;;3.90;99.90;;;4.69;100.00;52071.97;5012611;28;20187;-65
2021/01/03 08:56:16;;;;;;;0.70;0.60;;;3.90;99.90;;;4.58;100.00;50764.19;5020145;28;20190;-65
2021/01/03 08:58:43;;;;;;;0.70;0.60;;;3.90;99.90;;;4.71;100.00;52398.47;5017914;28;20518;-66
2021/01/03 09:01:18;;;;;;;0.70;0.60;;;3.90;99.90;;;4.70;100.00;53695.91;5008738;28;20493;-65
2021/01/03 09:03:48;;;;;;;0.70;0.60;;;3.90;99.90;;;4.64;100.00;53041.22;5011602;28;20546;-65
2021/01/03 09:06:16;;;;;;;0.60;0.60;;;3.90;99.90;;;4.78;100.00;50457.41;5014964;28;20441;-65
2021/01/03 09:08:44;;;;;;;0.70;0.60;;;3.90;99.90;;;4.66;100.00;49472.94;5018907;28;20444;-66
2021/01/03 09:11:19;;;;;;;0.60;0.50;;;3.90;99.90;;;4.88;100.00;51114.75;5011374;28;20503;-66
2021/01/03 09:13:49;;;;;;;0.60;0.50;;;4.00;99.90;;;4.90;100.00;43982.69;5014585;28;20460;-65
2021/01/03 09:16:32;;;;;;;0.70;0.60;;;4.00;99.90;;;4.76;100.00;40810.59;5027693;28;20536;-65
2021/01/03 09:19:12;;;;;;;0.60;0.50;;;4.00;99.90;;;4.76;100.00;45915.31;5017070;28;20477;-65
2021/01/03 09:21:53;;;;;;;0.70;0.60;;;4.00;99.90;;;4.79;100.00;44298.22;5027018;28;20436;-67
2021/01/03 09:24:23;;;;;;;0.67;0.60;;;4.00;99.90;;;4.73;100.00;46561.38;5004929;28;20975;-65
2021/01/03 09:26:52;;;;;;;0.70;0.60;;;4.00;99.90;;;4.77;100.00;44296.22;5022608;28;20433;-64
2021/01/03 09:29:25;;;;;;;0.70;0.50;;;4.00;99.90;;;4.73;100.00;44617.31;5026523;28;20469;-65
2021/01/03 09:32:05;;;;;;;0.70;0.60;;;4.00;99.90;;;4.73;100.00;45589.22;5014743;28;20868;-65
2021/01/03 09:34:50;;;;;;;0.63;0.60;;;4.00;99.90;;;4.61;100.00;47847.72;5014815;28;20199;-65
2021/01/03 09:37:24;;;;;;;0.67;0.60;;;4.00;99.90;;;4.76;100.00;45915.72;5014449;28;20847;-67
2021/01/03 09:40:30;;;;;;;0.70;0.60;;;4.00;99.90;;;4.69;100.00;47530.00;5009952;28;20518;-64
2021/01/03 09:43:12;;;;;;;0.70;0.50;;;4.00;99.90;;;4.85;100.00;39881.94;5014720;28;20265;-65
2021/01/03 09:45:52;;;;;;;1.93;1.33;;;4.10;99.90;;;4.75;100.00;43558.72;5021677;28;20470;-65
2021/01/03 09:48:32;;;;;;;0.70;0.60;;;4.10;99.90;;;4.81;100.00;40328.94;5029935;28;20532;-65
2021/01/03 09:51:35;;;;;;;0.70;0.50;;;4.10;99.90;;;4.82;100.00;45570.88;5023271;28;20938;-65
2021/01/03 09:54:10;;;;;;;0.70;0.60;;;4.10;99.90;;;4.85;100.00;45923.19;5015622;28;20464;-66
2021/01/03 09:56:39;;;;;;;0.70;0.60;;;4.10;99.90;;;4.85;100.00;46204.25;5027734;28;20464;-65
2021/01/03 09:59:14;;;;;;;0.70;0.60;;;4.10;99.90;;;4.86;100.00;43979.50;5016505;28;20879;-66
2021/01/03 10:01:42;;;;;;;0.70;0.60;;;4.10;99.90;;;5.04;100.00;41857.59;5018805;28;20945;-64
2021/01/03 10:04:19;;;;;;;0.70;0.60;;;4.20;99.90;;;5.00;100.00;42218.84;5010447;28;20518;-64
2021/01/03 10:06:49;;;;;;;0.70;0.60;;;4.20;99.90;;;5.05;100.00;47236.03;5026309;28;20437;-64
2021/01/03 10:09:30;;;;;;;0.60;0.60;;;4.20;99.90;;;4.97;100.00;46484.44;5016524;28;20452;-65
2021/01/03 10:11:57;;;;;;;0.70;0.57;;;4.20;99.90;;;4.96;100.00;49174.66;5024307;28;20430;-65
2021/01/03 10:14:31;;;;;;;0.70;0.60;;;4.20;99.90;;;4.87;100.00;43871.47;5025945;28;20518;-66
2021/01/03 10:17:13;;;;;;;0.70;0.60;;;4.20;99.90;;;4.95;100.00;50471.91;5026780;28;20441;-65
2021/01/03 10:19:40;;;;;;;0.70;0.60;;;4.20;99.90;;;5.01;100.00;46584.06;5014427;28;20442;-68
2021/01/03 10:22:27;;;;;;;0.70;0.60;;;4.20;99.90;;;4.98;100.00;50475.09;5021881;28;20524;-65
2021/01/03 10:24:57;;;;;;;1.67;1.57;;;4.20;99.90;;;5.03;100.00;46585.75;5026384;28;20928;-64
2021/01/03 10:27:25;;;;;;;0.70;0.67;;;4.20;99.90;;;5.12;100.00;39250.69;5020642;28;20472;-64
2021/01/03 10:29:52;;;;;;;0.70;0.50;;;4.30;99.90;;;5.08;100.00;41172.56;5029953;28;20460;-66
2021/01/03 10:32:20;;;;;;;0.70;0.60;;;4.20;99.90;;;5.24;100.00;47408.94;5019956;28;20449;-65
2021/01/03 10:34:47;;;;;;;0.70;0.60;;;4.30;99.90;;;5.01;100.00;47405.34;5025562;28;20512;-65
2021/01/03 10:37:15;;;;;;;0.67;0.60;;;4.30;99.90;;;5.37;100.00;54083.91;5028718;28;20997;-65
2021/01/03 10:39:42;;;;;;;0.70;0.60;;;4.20;99.90;;;5.00;100.00;57626.16;5032291;28;20463;-65
2021/01/03 10:42:11;;;;;;;0.93;0.90;;;4.30;99.90;;;5.02;100.00;53401.69;5019475;28;20510;-65
2021/01/03 10:44:38;;;;;;;0.70;0.60;;;4.30;99.90;;;4.96;100.00;50797.88;5032955;28;20477;-64
2021/01/03 10:47:05;;;;;;;0.63;0.60;;;4.30;99.90;;;4.96;100.00;45739.00;5020244;28;20473;-66
2021/01/03 10:49:32;;;;;;;0.70;0.60;;;4.30;99.90;;;5.04;100.00;55678.34;5030600;28;20472;-64
2021/01/03 10:51:59;;;;;;;3.50;1.77;;;4.30;99.90;;;5.04;100.00;58280.47;5014878;28;20974;-67
2021/01/03 10:54:28;;;;;;;0.70;0.60;;;4.30;99.90;;;5.14;100.00;58290.31;5021335;28;20444;-65